Time;durP1;ratioP1;P1;durP2;ratioP2;P2;SDS_P1;SDS_P2;PMS_P1;PMS_P2;Temp;Humidity;BMP_temperature;BMP_pressure;BME280_temperature;BME280_humidity;BME280_pressure;Samples;Min_cycle;Max_cycle;Signal;HPM_P1;HPM_P2
2023/09/16 00:01:36;;;;;;;39.35;21.80;;;;;;;15.64;100.00;94819.44;5056528;28;20059;-81
2023/09/16 00:04:02;;;;;;;49.85;24.85;;;;;;;15.53;100.00;94815.38;5056693;28;20066;-81
2023/09/16 00:06:27;;;;;;;48.50;25.75;;;;;;;15.48;100.00;94815.44;5057762;28;20039;-81
2023/09/16 00:08:52;;;;;;;44.67;24.98;;;;;;;15.53;100.00;94829.34;5056365;28;20327;-81
2023/09/16 00:11:18;;;;;;;42.92;23.95;;;;;;;15.67;100.00;94820.69;5056146;28;20029;-81
2023/09/16 00:13:43;;;;;;;35.17;20.95;;;;;;;15.82;100.00;94822.31;5056653;28;20061;-81
2023/09/16 00:16:12;;;;;;;39.53;22.58;;;;;;;15.75;100.00;94827.97;5057487;28;20349;-81
2023/09/16 00:18:38;;;;;;;44.10;23.60;;;;;;;15.61;100.00;94821.84;5055833;28;20033;-81
2023/09/16 00:21:03;;;;;;;35.20;20.92;;;;;;;15.79;100.00;94828.97;5056034;28;20029;-81
2023/09/16 00:23:31;;;;;;;41.60;22.40;;;;;;;15.62;100.00;94826.84;5057450;28;20032;-81
2023/09/16 00:25:57;;;;;;;37.72;21.00;;;;;;;15.51;100.00;94820.16;5056237;28;20028;-81
2023/09/16 00:28:25;;;;;;;37.00;20.73;;;;;;;15.34;100.00;94818.00;5055686;28;20474;-81
2023/09/16 00:30:51;;;;;;;33.08;18.92;;;;;;;15.64;100.00;94829.19;5056127;28;20032;-81
2023/09/16 00:33:16;;;;;;;29.90;18.55;;;;;;;15.71;100.00;94821.72;5056042;28;20028;-81
2023/09/16 00:35:41;;;;;;;34.58;19.67;;;;;;;15.51;100.00;94818.28;5055926;28;20131;-81
2023/09/16 00:38:08;;;;;;;35.63;20.58;;;;;;;15.53;100.00;94818.00;5055433;28;20039;-81
2023/09/16 00:40:34;;;;;;;32.53;19.23;;;;;;;15.47;100.00;94811.22;5055822;28;20033;-81
2023/09/16 00:43:00;;;;;;;24.42;15.73;;;;;;;15.69;100.00;94806.13;5057058;28;20345;-81
2023/09/16 00:45:25;;;;;;;25.52;16.63;;;;;;;15.64;100.00;94813.34;5055992;28;20021;-81
2023/09/16 00:47:57;;;;;;;26.35;15.00;;;;;;;15.49;100.00;94798.50;5056598;28;20442;-81
2023/09/16 00:50:23;;;;;;;21.92;14.52;;;;;;;15.71;100.00;94805.06;5056987;28;20025;-81
2023/09/16 00:52:54;;;;;;;23.35;14.40;;;;;;;15.88;100.00;94800.00;5057467;28;20036;-81
2023/09/16 00:55:20;;;;;;;25.77;13.52;;;;;;;15.99;100.00;94799.88;5056965;28;20102;-81
2023/09/16 00:57:48;;;;;;;23.40;14.02;;;;;;;15.73;100.00;94801.06;5040279;28;20021;-81
2023/09/16 01:00:16;;;;;;;32.00;15.20;;;;;;;15.48;100.00;94800.38;5051814;28;20070;-81
2023/09/16 01:02:44;;;;;;;26.23;15.30;;;;;;;15.46;100.00;94796.44;5056063;28;20487;-81
2023/09/16 01:05:14;;;;;;;26.25;14.82;;;;;;;15.58;100.00;94799.44;5056957;28;20044;-80
2023/09/16 01:07:41;;;;;;;20.90;13.93;;;;;;;15.74;100.00;94794.72;5040774;28;20025;-80
2023/09/16 01:10:08;;;;;;;22.25;14.73;;;;;;;15.82;100.00;94803.81;5058210;28;20342;-80
2023/09/16 01:12:33;;;;;;;23.73;14.23;;;;;;;15.84;100.00;94797.16;5057494;28;20031;-81
2023/09/16 01:14:59;;;;;;;23.40;13.98;;;;;;;15.99;100.00;94802.53;5057235;28;20337;-81
2023/09/16 01:17:32;;;;;;;22.73;13.77;;;;;;;16.14;100.00;94794.31;5056724;28;20119;-81
2023/09/16 01:20:10;;;;;;;;;;;;;;;15.64;100.00;94795.66;5057015;28;20024;-81
2023/09/16 01:22:37;;;;;;;22.80;13.65;;;;;;;15.44;100.00;94798.59;5056961;28;20237;-81
2023/09/16 01:25:06;;;;;;;22.52;13.32;;;;;;;15.45;100.00;94784.31;5040328;28;20020;-81
2023/09/16 01:27:32;;;;;;;26.75;14.65;;;;;;;15.49;100.00;94785.31;5056739;28;20056;-81
2023/09/16 01:30:02;;;;;;;21.08;13.48;;;;;;;15.75;100.00;94785.72;5038744;28;20067;-81
2023/09/16 01:32:37;;;;;;;21.52;13.18;;;;;;;15.64;100.00;94779.81;5055010;28;20029;-81
2023/09/16 01:35:06;;;;;;;22.23;13.70;;;;;;;15.92;100.00;94785.19;5038760;28;20054;-81
2023/09/16 01:37:33;;;;;;;22.75;12.45;;;;;;;16.17;100.00;94787.69;5055597;28;20062;-81
2023/09/16 01:39:59;;;;;;;18.75;11.23;;;;;;;16.24;100.00;94794.16;5054688;28;20067;-81
2023/09/16 01:42:28;;;;;;;16.92;10.50;;;;;;;16.34;100.00;94793.16;5037845;28;20053;-81
2023/09/16 01:44:54;;;;;;;20.40;12.20;;;;;;;16.42;100.00;94802.28;5054504;28;20187;-81
2023/09/16 01:47:20;;;;;;;23.08;13.45;;;;;;;16.34;100.00;94797.66;5037889;28;20123;-81
2023/09/16 01:49:46;;;;;;;21.55;13.18;;;;;;;15.90;100.00;94802.41;5054444;28;20059;-81
2023/09/16 01:52:11;;;;;;;22.92;13.35;;;;;;;15.76;100.00;94805.75;5054496;28;20106;-81
2023/09/16 01:54:37;;;;;;;23.75;13.55;;;;;;;15.72;100.00;94817.19;5055752;28;20025;-81
2023/09/16 01:57:02;;;;;;;15.98;11.70;;;;;;;15.94;100.00;94812.09;5037650;28;20426;-81
2023/09/16 01:59:28;;;;;;;16.73;11.82;;;;;;;16.23;100.00;94813.72;5054256;28;20178;-81
2023/09/16 02:01:53;;;;;;;16.30;11.15;;;;;;;16.52;100.00;94817.97;5037950;28;20029;-81
2023/09/16 02:04:19;;;;;;;16.58;11.13;;;;;;;16.64;100.00;94820.09;5054382;28;20033;-81
2023/09/16 02:06:46;;;;;;;16.50;10.82;;;;;;;16.75;100.00;94815.41;5054227;28;20064;-81
2023/09/16 02:09:13;;;;;;;22.15;12.90;;;;;;;16.30;100.00;94815.19;5055131;28;20480;-81
2023/09/16 02:11:38;;;;;;;14.52;10.45;;;;;;;16.00;100.00;94812.00;5054067;28;20074;-81
2023/09/16 02:14:04;;;;;;;23.10;12.15;;;;;;;15.87;100.00;94814.31;5054198;28;20468;-81
2023/09/16 02:16:31;;;;;;;22.60;12.20;;;;;;;16.27;100.00;94813.91;5054047;28;20037;-81
2023/09/16 02:18:56;;;;;;;21.90;11.85;;;;;;;16.39;100.00;94801.00;5037069;28;20040;-81
2023/09/16 02:21:22;;;;;;;13.55;9.50;;;;;;;16.42;100.00;94797.00;5037472;28;20438;-81
2023/09/16 02:23:48;;;;;;;18.98;11.00;;;;;;;16.50;100.00;94791.03;5054134;28;20082;-81
2023/09/16 02:26:13;;;;;;;17.27;10.57;;;;;;;16.59;100.00;94792.97;5053816;28;20472;-81
2023/09/16 02:28:40;;;;;;;16.23;9.93;;;;;;;16.46;100.00;94790.03;5053380;28;20035;-81
2023/09/16 02:31:06;;;;;;;15.93;10.95;;;;;;;16.57;100.00;94793.28;5053896;28;20025;-81
2023/09/16 02:33:32;;;;;;;16.58;10.23;;;;;;;16.56;100.00;94788.28;5053807;28;20039;-81
2023/09/16 02:35:57;;;;;;;13.05;9.80;;;;;;;16.57;100.00;94787.19;5053611;28;20037;-81
2023/09/16 02:38:23;;;;;;;17.58;11.20;;;;;;;16.31;100.00;94785.84;5054827;28;20033;-81
2023/09/16 02:40:48;;;;;;;16.60;10.35;;;;;;;16.08;100.00;94782.28;5053555;28;20029;-81
2023/09/16 02:43:14;;;;;;;19.80;10.60;;;;;;;15.58;100.00;94785.47;5037356;28;20079;-81
2023/09/16 02:45:43;;;;;;;18.15;11.45;;;;;;;15.49;100.00;94790.59;5053898;28;20029;-81
2023/09/16 02:48:09;;;;;;;23.02;11.95;;;;;;;15.70;100.00;94785.78;5053641;28;20024;-81
2023/09/16 02:50:36;;;;;;;16.38;10.45;;;;;;;15.79;100.00;94791.19;5053758;28;20052;-81
2023/09/16 02:53:01;;;;;;;19.73;10.27;;;;;;;15.84;100.00;94788.47;5037121;28;20056;-81
2023/09/16 02:55:27;;;;;;;15.60;10.40;;;;;;;15.97;100.00;94785.09;5036981;28;20036;-81
2023/09/16 02:57:53;;;;;;;23.17;13.18;;;;;;;15.83;100.00;94786.91;5036755;28;20028;-81
2023/09/16 03:00:19;;;;;;;25.48;14.27;;;;;;;15.62;100.00;94781.16;5053536;28;20025;-81
2023/09/16 03:02:50;;;;;;;24.13;14.93;;;;;;;15.54;100.00;94782.59;5054663;28;20036;-81
2023/09/16 03:05:16;;;;;;;23.15;12.05;;;;;;;16.00;100.00;94785.59;5037064;28;20033;-81
2023/09/16 03:07:43;;;;;;;16.35;11.48;;;;;;;16.21;100.00;94786.00;5052976;28;20356;-81
2023/09/16 03:10:09;;;;;;;25.25;13.55;;;;;;;15.77;100.00;94777.47;5036792;28;20134;-81
2023/09/16 03:12:34;;;;;;;21.17;13.82;;;;;;;15.68;100.00;94786.06;5053357;28;20052;-81
2023/09/16 03:14:59;;;;;;;20.42;13.50;;;;;;;15.63;100.00;94782.72;5053589;28;20119;-81
2023/09/16 03:17:25;;;;;;;23.63;13.73;;;;;;;15.54;100.00;94779.97;5052659;28;20032;-81
2023/09/16 03:19:50;;;;;;;21.55;12.43;;;;;;;15.81;100.00;94784.53;5054294;28;20098;-81
2023/09/16 03:22:16;;;;;;;17.85;11.18;;;;;;;16.11;100.00;94792.28;5053187;28;20028;-81
2023/09/16 03:24:42;;;;;;;17.52;10.48;;;;;;;16.24;100.00;94780.13;5053290;28;20029;-81
2023/09/16 03:27:08;;;;;;;16.88;9.95;;;;;;;16.35;100.00;94778.88;5038979;28;20048;-81
2023/09/16 03:29:33;;;;;;;15.73;10.40;;;;;;;16.50;100.00;94777.81;5057135;28;20036;-81
2023/09/16 03:31:59;;;;;;;16.63;10.30;;;;;;;16.63;100.00;94778.88;5057304;28;20037;-81
2023/09/16 03:34:24;;;;;;;15.25;9.52;;;;;;;16.71;100.00;94779.22;5058402;28;20457;-81
2023/09/16 03:36:50;;;;;;;14.00;9.55;;;;;;;16.66;100.00;94775.63;5058005;28;20039;-81
2023/09/16 03:39:15;;;;;;;19.70;10.55;;;;;;;16.16;100.00;94772.91;5056935;28;20029;-81
2023/09/16 03:41:40;;;;;;;15.75;10.60;;;;;;;16.08;100.00;94774.34;5057014;28;20028;-81
2023/09/16 03:44:06;;;;;;;19.70;10.27;;;;;;;16.21;100.00;94781.53;5057174;28;20131;-81
2023/09/16 03:46:32;;;;;;;16.50;10.18;;;;;;;16.59;100.00;94782.38;5056896;28;20039;-81
2023/09/16 03:48:57;;;;;;;15.63;9.85;;;;;;;16.65;100.00;94779.34;5056411;28;20346;-81
2023/09/16 03:51:23;;;;;;;15.02;10.10;;;;;;;16.82;100.00;94780.59;5056806;28;20032;-81
2023/09/16 03:53:48;;;;;;;15.52;9.48;;;;;;;16.84;100.00;94783.72;5056825;28;20028;-81
2023/09/16 03:56:14;;;;;;;12.77;9.18;;;;;;;16.89;100.00;94772.25;5056712;28;20499;-81
2023/09/16 03:58:39;;;;;;;17.55;9.73;;;;;;;16.99;100.00;94765.97;5039818;28;20029;-81
2023/09/16 04:01:05;;;;;;;13.88;9.63;;;;;;;17.01;100.00;94771.78;5056689;28;20025;-81
2023/09/16 04:03:31;;;;;;;15.55;8.93;;;;;;;17.06;100.00;94771.66;5057087;28;20442;-81
2023/09/16 04:05:58;;;;;;;12.50;8.70;;;;;;;17.09;100.00;94769.22;5040177;28;20056;-81
2023/09/16 04:08:26;;;;;;;10.63;8.55;;;;;;;17.11;100.00;94774.19;5039893;28;20430;-81
2023/09/16 04:10:52;;;;;;;14.18;8.60;;;;;;;17.06;100.00;94783.03;5057663;28;20204;-81
2023/09/16 04:13:17;;;;;;;13.50;8.85;;;;;;;17.12;100.00;94781.06;5056413;28;20029;-81
2023/09/16 04:15:44;;;;;;;15.02;9.90;;;;;;;16.74;100.00;94779.44;5041975;28;20033;-80
2023/09/16 04:18:10;;;;;;;20.20;9.68;;;;;;;16.10;100.00;94770.31;5036007;28;20037;-81
2023/09/16 04:20:36;;;;;;;19.88;11.27;;;;;;;15.77;100.00;94772.19;5052603;28;20350;-82
2023/09/16 04:23:02;;;;;;;16.92;11.25;;;;;;;15.66;100.00;94771.59;5057133;28;20043;-82
2023/09/16 04:25:27;;;;;;;16.48;10.38;;;;;;;15.99;100.00;94768.94;5036403;28;20041;-81
2023/09/16 04:27:53;;;;;;;18.20;10.10;;;;;;;16.23;100.00;94768.00;5035516;28;20033;-81
2023/09/16 04:30:19;;;;;;;15.82;11.52;;;;;;;16.20;100.00;94764.06;5052524;28;20495;-81
2023/09/16 04:32:45;;;;;;;17.08;11.38;;;;;;;16.24;100.00;94774.84;5056310;28;20039;-81
2023/09/16 04:35:11;;;;;;;17.20;11.10;;;;;;;16.23;100.00;94774.06;5039493;28;20127;-81
2023/09/16 04:37:36;;;;;;;24.42;12.07;;;;;;;15.57;100.00;94774.09;5037445;28;20064;-81
2023/09/16 04:40:09;;;;;;;23.77;14.10;;;;;;;15.35;100.00;94772.88;5056943;28;20033;-81
2023/09/16 04:42:35;;;;;;;23.23;15.13;;;;;;;15.27;100.00;94776.13;5055428;28;20025;-81
2023/09/16 04:45:02;;;;;;;17.45;12.02;;;;;;;15.47;100.00;94772.41;5044207;28;20028;-82
2023/09/16 04:47:28;;;;;;;20.00;11.27;;;;;;;15.60;100.00;94772.75;5046263;28;20496;-82
2023/09/16 04:49:54;;;;;;;21.38;11.23;;;;;;;15.64;100.00;94774.53;5055974;28;20025;-82
2023/09/16 04:52:19;;;;;;;18.13;11.40;;;;;;;15.80;100.00;94774.28;5055906;28;20028;-82
2023/09/16 04:54:44;;;;;;;20.30;11.82;;;;;;;15.77;100.00;94773.00;5055858;28;20036;-82
2023/09/16 04:57:10;;;;;;;12.95;9.95;;;;;;;15.84;100.00;94769.97;5055369;28;20370;-82
2023/09/16 04:59:36;;;;;;;13.70;9.65;;;;;;;15.87;100.00;94771.25;5039198;28;20039;-82
2023/09/16 05:02:02;;;;;;;16.00;10.10;;;;;;;15.65;100.00;94765.53;5055852;28;20024;-82
2023/09/16 05:04:27;;;;;;;17.35;11.30;;;;;;;15.35;100.00;94778.16;5055658;28;20442;-82
2023/09/16 05:06:53;;;;;;;17.10;10.55;;;;;;;15.36;100.00;94790.28;5055197;28;20025;-82
2023/09/16 05:09:20;;;;;;;20.25;11.73;;;;;;;15.38;100.00;94790.75;5072393;28;20032;-82
2023/09/16 05:11:46;;;;;;;14.68;10.32;;;;;;;15.34;100.00;94788.97;5055587;28;20445;-81
2023/09/16 05:14:11;;;;;;;18.13;10.75;;;;;;;15.76;100.00;94782.00;5043643;28;20030;-81
2023/09/16 05:16:37;;;;;;;20.25;10.70;;;;;;;16.06;100.00;94782.56;5055290;28;20033;-81
2023/09/16 05:19:02;;;;;;;16.67;9.18;;;;;;;16.18;100.00;94787.38;5054942;28;20109;-82
2023/09/16 05:21:28;;;;;;;11.32;8.70;;;;;;;16.23;100.00;94783.84;5056195;28;20029;-82
2023/09/16 05:23:54;;;;;;;15.27;9.32;;;;;;;16.21;100.00;94778.88;5038707;28;20059;-81
2023/09/16 05:26:19;;;;;;;20.50;9.45;;;;;;;15.86;100.00;94786.31;5055076;28;20400;-82
2023/09/16 05:28:44;;;;;;;19.63;10.60;;;;;;;15.66;100.00;94774.22;5055311;28;20032;-82
2023/09/16 05:31:10;;;;;;;15.82;11.05;;;;;;;15.73;100.00;94773.84;5056711;28;20029;-82
2023/09/16 05:33:36;;;;;;;24.48;11.05;;;;;;;16.07;100.00;94775.44;5055157;28;20149;-81
2023/09/16 05:36:01;;;;;;;16.58;10.32;;;;;;;16.12;100.00;94780.63;5055136;28;20033;-82
2023/09/16 05:38:26;;;;;;;15.90;10.02;;;;;;;16.37;100.00;94781.22;5038180;28;20039;-81
2023/09/16 05:40:52;;;;;;;16.48;8.50;;;;;;;16.50;100.00;94782.31;5055185;28;20396;-82
2023/09/16 05:43:17;;;;;;;19.60;10.05;;;;;;;16.67;100.00;94790.41;5055035;28;20036;-82
2023/09/16 05:45:43;;;;;;;22.20;9.75;;;;;;;16.24;100.00;94788.06;5054974;28;20029;-82
2023/09/16 05:48:09;;;;;;;20.58;10.40;;;;;;;16.10;100.00;94793.34;5038669;28;20024;-82
2023/09/16 05:50:34;;;;;;;15.90;9.63;;;;;;;16.05;100.00;94793.41;5055840;28;20028;-81
2023/09/16 05:53:03;;;;;;;14.73;9.57;;;;;;;15.89;100.00;94790.25;5054726;28;20071;-82
2023/09/16 05:55:28;;;;;;;13.23;9.20;;;;;;;16.02;100.00;94796.66;5054969;28;20120;-81
2023/09/16 05:57:53;;;;;;;18.70;10.50;;;;;;;16.39;100.00;94794.94;5054394;28;20457;-82
2023/09/16 06:00:19;;;;;;;14.45;9.50;;;;;;;16.64;100.00;94798.94;5055926;28;20036;-82
2023/09/16 06:02:44;;;;;;;16.35;9.25;;;;;;;16.72;100.00;94802.00;5038420;28;20032;-82
2023/09/16 06:05:10;;;;;;;13.55;9.27;;;;;;;16.79;100.00;94799.72;5054454;28;20060;-81
2023/09/16 06:07:39;;;;;;;15.68;10.13;;;;;;;16.93;100.00;94794.41;5054244;28;20033;-81
2023/09/16 06:10:06;;;;;;;12.43;9.20;;;;;;;16.95;100.00;94794.91;5054466;28;20064;-82
2023/09/16 06:12:33;;;;;;;12.07;8.98;;;;;;;16.92;100.00;94788.34;5053879;28;20044;-82
2023/09/16 06:14:58;;;;;;;12.85;8.23;;;;;;;16.96;100.00;94785.88;5053982;28;20052;-82
2023/09/16 06:17:24;;;;;;;14.45;8.82;;;;;;;16.99;100.00;94789.78;5054032;28;20033;-82
2023/09/16 06:19:54;;;;;;;13.23;8.65;;;;;;;17.06;100.00;94787.56;5053986;28;20047;-81
2023/09/16 06:22:20;;;;;;;14.02;8.98;;;;;;;17.04;100.00;94785.19;5054139;28;20028;-81
2023/09/16 06:24:46;;;;;;;13.13;8.80;;;;;;;17.05;100.00;94783.34;5054196;28;20033;-82
2023/09/16 06:27:13;;;;;;;17.92;8.77;;;;;;;17.06;100.00;94783.03;5053698;28;20400;-81
2023/09/16 06:29:39;;;;;;;12.88;8.68;;;;;;;17.06;100.00;94785.69;5054134;28;20056;-82
2023/09/16 06:32:04;;;;;;;14.20;8.90;;;;;;;17.08;100.00;94780.88;5054379;28;20186;-82
2023/09/16 06:34:30;;;;;;;13.68;8.10;;;;;;;17.06;100.00;94790.19;5054107;28;20037;-81
2023/09/16 06:36:55;;;;;;;12.63;8.15;;;;;;;17.07;100.00;94789.91;5054842;28;20039;-81
2023/09/16 06:39:23;;;;;;;13.52;8.60;;;;;;;17.06;100.00;94790.97;5054079;28;20029;-81
2023/09/16 06:41:49;;;;;;;18.08;9.73;;;;;;;16.44;100.00;94780.84;5054048;28;20029;-82
2023/09/16 06:44:14;;;;;;;20.92;11.20;;;;;;;15.99;100.00;94791.94;5055361;28;20039;-82
2023/09/16 06:46:40;;;;;;;20.02;11.50;;;;;;;16.56;100.00;94793.56;5054078;28;20033;-82
2023/09/16 06:49:06;;;;;;;17.10;10.20;;;;;;;16.73;100.00;94792.97;5053522;28;20036;-82
2023/09/16 06:51:31;;;;;;;19.20;10.30;;;;;;;16.83;100.00;94792.75;5054072;28;20041;-82
2023/09/16 06:53:56;;;;;;;17.35;10.18;;;;;;;16.88;100.00;94797.16;5037258;28;20531;-82
2023/09/16 06:56:22;;;;;;;19.15;11.00;;;;;;;16.93;100.00;94805.78;5054043;28;20045;-82
2023/09/16 06:58:47;;;;;;;17.30;12.02;;;;;;;16.82;100.00;94804.41;5054706;28;20438;-82
2023/09/16 07:01:13;;;;;;;19.70;11.70;;;;;;;16.67;100.00;94813.47;5054342;28;20406;-82
2023/09/16 07:03:38;;;;;;;19.05;10.10;;;;;;;17.13;100.00;94813.63;5037164;28;20331;-82
2023/09/16 07:06:04;;;;;;;20.40;9.95;;;;;;;17.23;100.00;94806.22;5055017;28;20143;-82
2023/09/16 07:08:29;;;;;;;25.23;12.18;;;;;;;17.28;100.00;94809.84;5053621;28;20117;-82
2023/09/16 07:10:55;;;;;;;17.13;8.85;;;;;;;17.49;100.00;94815.47;5054045;28;20438;-82
2023/09/16 07:13:21;;;;;;;18.73;9.30;;;;;;;17.73;100.00;94817.06;5053696;28;20033;-82
2023/09/16 07:15:56;;;;;;;16.83;9.07;;;;;;;17.91;100.00;94816.06;5053589;28;20037;-82
2023/09/16 07:18:21;;;;;;;22.23;11.77;;;;;;;18.11;100.00;94811.38;5053056;28;20564;-82
2023/09/16 07:20:48;;;;;;;20.40;11.52;;;;;;;17.69;100.00;94813.44;5053570;28;20136;-81
2023/09/16 07:23:14;;;;;;;23.33;11.82;;;;;;;17.21;100.00;94821.63;5053350;28;20083;-81
2023/09/16 07:25:39;;;;;;;23.42;14.63;;;;;;;17.01;100.00;94822.09;5053319;28;20381;-81
2023/09/16 07:28:06;;;;;;;26.08;14.55;;;;;;;16.94;100.00;94817.16;5052904;28;20032;-81
2023/09/16 07:30:32;;;;;;;30.73;16.98;;;;;;;16.88;100.00;94813.03;5053352;28;20033;-81
2023/09/16 07:32:57;;;;;;;22.75;14.25;;;;;;;17.13;100.00;94822.34;5053291;28;20033;-81
2023/09/16 07:35:23;;;;;;;21.60;12.43;;;;;;;17.73;100.00;94820.50;5053233;28;20025;-81
2023/09/16 07:37:49;;;;;;;21.02;11.30;;;;;;;17.97;100.00;94826.56;5052990;28;20354;-81
2023/09/16 07:40:14;;;;;;;18.95;11.80;;;;;;;18.13;100.00;94819.03;5036550;28;20044;-81
2023/09/16 07:42:40;;;;;;;15.85;10.98;;;;;;;18.17;100.00;94815.47;5054296;28;20059;-81
2023/09/16 07:45:06;;;;;;;15.35;10.57;;;;;;;18.31;100.00;94817.25;5053151;28;20029;-81
2023/09/16 07:47:32;;;;;;;27.33;12.00;;;;;;;18.39;100.00;94821.81;5052707;28;20029;-81
2023/09/16 07:49:58;;;;;;;19.80;11.43;;;;;;;18.35;100.00;94826.16;5036887;28;20036;-81
2023/09/16 07:52:23;;;;;;;18.30;11.40;;;;;;;18.43;100.00;94825.41;5053015;28;20040;-81
2023/09/16 07:54:48;;;;;;;21.60;12.95;;;;;;;17.84;100.00;94834.28;5053110;28;20029;-81
2023/09/16 07:57:14;;;;;;;21.65;12.63;;;;;;;18.16;100.00;94832.47;5052569;28;20033;-81
2023/09/16 07:59:39;;;;;;;20.00;12.45;;;;;;;18.39;100.00;94837.72;5054397;28;20044;-81
2023/09/16 08:02:06;;;;;;;18.38;12.18;;;;;;;18.53;100.00;94834.97;5053024;28;20059;-81
2023/09/16 08:04:31;;;;;;;23.90;10.70;;;;;;;19.00;100.00;94834.53;5053011;28;20037;-81
2023/09/16 08:06:57;;;;;;;19.73;12.55;;;;;;;19.58;100.00;94829.09;5052645;28;20423;-81
2023/09/16 08:09:23;;;;;;;19.38;12.27;;;;;;;20.04;100.00;94839.41;5052810;28;20121;-81
2023/09/16 08:11:48;;;;;;;20.25;12.68;;;;;;;20.27;100.00;94833.88;5053252;28;20078;-81
2023/09/16 08:14:14;;;;;;;17.75;10.90;;;;;;;20.63;100.00;94833.44;5056521;28;20032;-81
2023/09/16 08:16:39;;;;;;;18.35;11.30;;;;;;;21.10;100.00;94828.38;5056696;28;20048;-81
2023/09/16 08:19:05;;;;;;;18.48;10.90;;;;;;;20.67;100.00;94832.78;5055833;28;20342;-81
2023/09/16 08:21:30;;;;;;;14.88;9.50;;;;;;;20.88;100.00;94832.88;5056631;28;20033;-81
2023/09/16 08:23:56;;;;;;;17.50;11.82;;;;;;;21.07;100.00;94829.00;5039637;28;20175;-82
2023/09/16 08:26:21;;;;;;;16.55;11.52;;;;;;;20.65;100.00;94832.34;5056262;28;20434;-82
2023/09/16 08:28:46;;;;;;;15.85;10.25;;;;;;;21.75;100.00;94826.19;5055751;28;20036;-81
2023/09/16 08:31:12;;;;;;;15.57;10.25;;;;;;;21.36;100.00;94830.88;5056265;28;20111;-81
2023/09/16 08:33:37;;;;;;;16.23;11.38;;;;;;;20.15;100.00;94830.00;5040020;28;20037;-82
2023/09/16 08:36:03;;;;;;;14.23;9.98;;;;;;;20.72;100.00;94832.59;5057354;28;20068;-81
2023/09/16 08:38:28;;;;;;;15.70;10.55;;;;;;;21.28;100.00;94835.16;5057260;28;20082;-82
2023/09/16 08:41:15;;;;;;;17.73;10.30;;;;;;;21.26;100.00;94832.03;5055628;28;20040;-81
2023/09/16 08:43:41;;;;;;;16.05;9.73;;;;;;;21.95;100.00;94831.03;5039676;28;20033;-82
2023/09/16 08:46:09;;;;;;;16.35;9.32;;;;;;;21.92;100.00;94835.13;5055988;28;20449;-81
2023/09/16 08:48:35;;;;;;;15.45;10.63;;;;;;;21.82;100.00;94840.88;5055536;28;20032;-82
2023/09/16 08:51:05;;;;;;;11.75;7.50;;;;;;;21.50;100.00;94830.59;5055932;28;20028;-82
2023/09/16 08:53:35;;;;;;;13.38;8.57;;;;;;;21.84;100.00;94836.78;5056241;28;20052;-82
2023/09/16 08:56:01;;;;;;;11.75;8.85;;;;;;;21.94;100.00;94834.78;5055702;28;20079;-82
2023/09/16 08:58:26;;;;;;;11.15;7.85;;;;;;;21.54;100.00;94828.84;5055368;28;20032;-82
2023/09/16 09:00:52;;;;;;;12.55;7.28;;;;;;;20.99;100.00;94834.06;5055492;28;20051;-82
2023/09/16 09:03:18;;;;;;;11.95;7.60;;;;;;;21.12;100.00;94837.59;5056106;28;20068;-82
2023/09/16 09:05:44;;;;;;;11.60;7.97;;;;;;;21.07;100.00;94835.13;5055669;28;20376;-81
2023/09/16 09:08:11;;;;;;;13.50;7.90;;;;;;;20.89;100.00;94839.75;5055103;28;20354;-81
2023/09/16 09:10:38;;;;;;;13.68;7.82;;;;;;;21.02;100.00;94843.31;5054391;28;20039;-81
2023/09/16 09:13:11;;;;;;;12.55;9.68;;;;;;;21.60;100.00;94840.88;5055542;28;20119;-82
2023/09/16 09:15:38;;;;;;;;;;;;;;;21.26;100.00;94841.91;5039682;28;20032;-82
2023/09/16 09:18:03;;;;;;;19.27;10.77;;;;;;;21.41;100.00;94843.22;5038406;28;19991;-81
2023/09/16 09:20:29;;;;;;;15.80;10.57;;;;;;;21.50;100.00;94849.25;5055289;28;20163;-82
2023/09/16 09:22:59;;;;;;;16.13;9.52;;;;;;;21.47;100.00;94853.38;5055445;28;20067;-81
2023/09/16 09:25:26;;;;;;;14.55;10.13;;;;;;;21.44;100.00;94854.00;5054608;28;20039;-80
2023/09/16 09:27:53;;;;;;;18.98;10.75;;;;;;;21.31;100.00;94858.47;5054691;28;20041;-81
2023/09/16 09:30:24;;;;;;;18.88;11.85;;;;;;;21.26;100.00;94853.34;5055239;28;20033;-80
2023/09/16 09:32:50;;;;;;;13.93;9.57;;;;;;;21.59;100.00;94843.84;5055255;28;20099;-81
2023/09/16 09:35:16;;;;;;;16.23;10.52;;;;;;;21.19;100.00;94853.88;5038631;28;20025;-81
2023/09/16 09:37:42;;;;;;;14.90;9.50;;;;;;;20.87;100.00;94840.09;5054509;28;20238;-81
2023/09/16 09:40:10;;;;;;;15.52;8.52;;;;;;;21.35;100.00;94841.84;5055564;28;20060;-80
2023/09/16 09:42:46;;;;;;;11.27;7.47;;;;;;;21.68;100.00;94841.16;5055103;28;20072;-81
2023/09/16 09:45:12;;;;;;;12.32;8.00;;;;;;;21.51;100.00;94845.47;5054049;28;20032;-81
2023/09/16 09:47:39;;;;;;;12.43;8.18;;;;;;;21.12;100.00;94834.16;5054268;28;20374;-81
2023/09/16 09:50:07;;;;;;;13.23;8.50;;;;;;;21.30;100.00;94840.13;5037845;28;20433;-80
2023/09/16 09:52:33;;;;;;;13.75;7.95;;;;;;;21.61;100.00;94839.00;5055786;28;20071;-81
2023/09/16 09:54:58;;;;;;;12.65;6.97;;;;;;;21.61;100.00;94836.31;5054701;28;20040;-82
2023/09/16 09:57:25;;;;;;;14.18;7.20;;;;;;;21.61;100.00;94837.09;5037612;28;20041;-82
2023/09/16 09:59:50;;;;;;;11.07;5.80;;;;;;;21.57;100.00;94838.84;5037875;28;20044;-82
2023/09/16 10:02:16;;;;;;;15.27;6.55;;;;;;;21.68;100.00;94838.50;5054842;28;20033;-82
2023/09/16 10:04:41;;;;;;;8.02;6.10;;;;;;;21.79;100.00;94844.19;5054498;28;20040;-82
2023/09/16 10:07:07;;;;;;;12.50;5.85;;;;;;;21.96;100.00;94837.94;5055213;28;20061;-82
2023/09/16 10:09:33;;;;;;;10.50;6.65;;;;;;;22.01;100.00;94835.81;5037542;28;20044;-81
2023/09/16 10:12:01;;;;;;;12.00;6.50;;;;;;;21.94;100.00;94832.91;5054072;28;20396;-81
2023/09/16 10:14:26;;;;;;;10.95;5.85;;;;;;;21.89;100.00;94833.91;5054282;28;20032;-81
2023/09/16 10:16:52;;;;;;;8.77;5.50;;;;;;;22.48;100.00;94827.84;5053351;28;20090;-81
2023/09/16 10:19:18;;;;;;;11.93;5.60;;;;;;;22.01;100.00;94824.38;5053819;28;20370;-81
2023/09/16 10:21:46;;;;;;;6.80;5.20;;;;;;;22.48;100.00;94833.97;5053924;28;20036;-81
2023/09/16 10:24:12;;;;;;;8.93;4.80;;;;;;;22.38;100.00;94832.47;5053954;28;20257;-81
2023/09/16 10:26:38;;;;;;;11.45;5.28;;;;;;;22.57;100.00;94831.19;5037539;28;20057;-82
2023/09/16 10:29:04;;;;;;;10.80;5.30;;;;;;;22.65;100.00;94822.28;5054082;28;20033;-81
2023/09/16 10:31:30;;;;;;;10.63;5.40;;;;;;;23.07;100.00;94829.28;5055096;28;20037;-81
2023/09/16 10:33:56;;;;;;;10.20;5.30;;;;;;;22.70;100.00;94819.41;5053758;28;20103;-81
2023/09/16 10:36:22;;;;;;;7.00;4.47;;;;;;;22.78;100.00;94820.41;5052839;28;20064;-81
2023/09/16 10:38:48;;;;;;;8.73;5.03;;;;;;;22.90;100.00;94821.53;5053408;28;20071;-82
2023/09/16 10:41:16;;;;;;;7.68;5.53;;;;;;;22.67;100.00;94820.06;5052424;28;20338;-82
2023/09/16 10:43:46;;;;;;;10.40;5.00;;;;;;;22.74;100.00;94817.63;5053752;28;20068;-82
2023/09/16 10:46:12;;;;;;;9.77;5.18;;;;;;;22.88;100.00;94819.16;5037097;28;20029;-81
2023/09/16 10:48:38;;;;;;;6.85;4.38;;;;;;;23.23;100.00;94816.00;5036895;28;20044;-81
2023/09/16 10:51:13;;;;;;;7.90;4.55;;;;;;;22.95;100.00;94813.28;5053920;28;20029;-82
2023/09/16 10:53:40;;;;;;;6.90;4.85;;;;;;;23.05;100.00;94820.84;5053601;28;20025;-81
2023/09/16 10:56:18;;;;;;;7.97;4.32;;;;;;;23.56;100.00;94819.63;5054423;28;20040;-82
2023/09/16 10:58:48;;;;;;;10.50;4.63;;;;;;;22.93;100.00;94815.50;5053476;28;20040;-82
2023/09/16 11:01:36;;;;;;;7.15;4.00;;;;;;;23.69;100.00;94821.13;5037418;28;20056;-81
2023/09/16 11:04:13;;;;;;;8.38;3.92;;;;;;;24.12;100.00;94812.72;5054653;28;20430;-82
2023/09/16 11:06:39;;;;;;;6.90;4.18;;;;;;;24.38;100.00;94817.56;5053325;28;20029;-81
2023/09/16 11:09:05;;;;;;;6.93;4.32;;;;;;;25.22;100.00;94814.13;5036837;28;20044;-82
2023/09/16 11:11:31;;;;;;;10.50;4.32;;;;;;;25.31;100.00;94808.56;5054518;28;20032;-82